Time;durP1;ratioP1;P1;durP2;ratioP2;P2;SDS_P1;SDS_P2;PMS_P1;PMS_P2;Temp;Humidity;BMP_temperature;BMP_pressure;BME280_temperature;BME280_humidity;BME280_pressure;Samples;Min_cycle;Max_cycle;Signal;HPM_P1;HPM_P2
2023/01/13 00:01:33;;;;;;;54.85;9.07;;;11.30;99.90;;;;;;5080271;28;20028;-66
2023/01/13 00:03:59;;;;;;;56.42;10.20;;;11.20;99.90;;;;;;5095459;28;20036;-66
2023/01/13 00:06:25;;;;;;;45.75;8.32;;;11.00;99.90;;;;;;5093607;28;20197;-66
2023/01/13 00:08:51;;;;;;;57.17;9.75;;;11.00;99.90;;;;;;5084089;28;20083;-66
2023/01/13 00:11:19;;;;;;;50.15;9.07;;;10.90;99.90;;;;;;5092129;28;20036;-66
2023/01/13 00:13:45;;;;;;;55.00;9.10;;;10.60;99.90;;;;;;5092270;28;20043;-66
2023/01/13 00:16:14;;;;;;;62.67;10.63;;;11.00;99.90;;;;;;5079897;28;20096;-66
2023/01/13 00:18:40;;;;;;;62.53;10.52;;;11.10;99.90;;;;;;5091729;28;20115;-66
2023/01/13 00:21:14;;;;;;;51.13;9.82;;;11.10;99.90;;;;;;5086654;28;20064;-66
2023/01/13 00:23:40;;;;;;;40.75;8.52;;;11.20;99.90;;;;;;5074753;28;20109;-66
2023/01/13 00:26:12;;;;;;;51.58;11.32;;;11.00;99.90;;;;;;5080602;28;20043;-66
2023/01/13 00:28:38;;;;;;;54.92;10.15;;;10.90;99.90;;;;;;5079058;28;20044;-66
2023/01/13 00:31:08;;;;;;;51.35;8.77;;;10.70;99.90;;;;;;5089915;28;20043;-66
2023/01/13 00:33:34;;;;;;;50.60;10.10;;;10.60;99.90;;;;;;5075790;28;20043;-66
2023/01/13 00:36:01;;;;;;;51.20;9.57;;;10.70;99.90;;;;;;5077777;28;20032;-66
2023/01/13 00:38:30;;;;;;;56.67;10.77;;;10.90;99.90;;;;;;5092448;28;20489;-66
2023/01/13 00:41:01;;;;;;;51.95;10.13;;;10.90;99.90;;;;;;5087407;28;20075;-66
2023/01/13 00:43:28;;;;;;;48.97;8.52;;;11.00;99.90;;;;;;5093376;28;20053;-66
2023/01/13 00:45:54;;;;;;;48.35;9.48;;;11.10;99.90;;;;;;5091321;28;20044;-66
2023/01/13 00:48:21;;;;;;;51.70;10.27;;;11.00;99.90;;;;;;5074174;28;20063;-66
2023/01/13 00:50:57;;;;;;;63.00;10.40;;;10.90;99.90;;;;;;5085893;28;20044;-66
2023/01/13 00:53:23;;;;;;;41.88;9.27;;;10.70;99.90;;;;;;5081513;28;20055;-66
2023/01/13 00:55:49;;;;;;;52.63;9.30;;;10.60;99.90;;;;;;5073052;28;20107;-66
2023/01/13 00:58:14;;;;;;;54.83;9.52;;;10.50;99.90;;;;;;5080725;28;20075;-66
2023/01/13 01:00:40;;;;;;;46.72;8.80;;;10.60;99.90;;;;;;5089633;28;20044;-66
2023/01/13 01:03:11;;;;;;;64.32;11.15;;;10.70;99.90;;;;;;5094173;28;20044;-66
2023/01/13 01:05:37;;;;;;;62.08;9.82;;;10.90;99.90;;;;;;5093183;28;20074;-66
2023/01/13 01:08:03;;;;;;;52.60;9.70;;;10.90;99.90;;;;;;5093787;28;20058;-66
2023/01/13 01:10:29;;;;;;;46.17;9.70;;;10.70;99.90;;;;;;5090255;28;20033;-66
2023/01/13 01:12:54;;;;;;;38.95;7.80;;;10.60;99.90;;;;;;5088646;28;20169;-66
2023/01/13 01:15:20;;;;;;;46.83;8.32;;;10.30;99.90;;;;;;5073707;28;20039;-66
2023/01/13 01:17:45;;;;;;;40.22;8.88;;;10.20;99.90;;;;;;5086425;28;20074;-66
2023/01/13 01:20:11;;;;;;;44.30;9.35;;;10.20;99.90;;;;;;5089235;28;20397;-66
2023/01/13 01:22:37;;;;;;;43.05;8.88;;;10.40;99.90;;;;;;5089146;28;20070;-66
2023/01/13 01:25:02;;;;;;;48.70;9.00;;;10.60;99.90;;;;;;5093410;28;20040;-66
2023/01/13 01:27:28;;;;;;;56.53;8.98;;;10.80;99.90;;;;;;5092127;28;20046;-66
2023/01/13 01:29:54;;;;;;;58.58;10.23;;;10.80;99.90;;;;;;5087512;28;20481;-66
2023/01/13 01:32:19;;;;;;;55.80;9.10;;;10.90;99.90;;;;;;5092022;28;20536;-66
2023/01/13 01:34:45;;;;;;;58.90;9.48;;;10.80;99.90;;;;;;5084117;28;20517;-66
2023/01/13 01:37:10;;;;;;;47.30;9.77;;;10.60;99.90;;;;;;5080082;28;20370;-66
2023/01/13 01:39:36;;;;;;;56.97;10.45;;;10.50;99.90;;;;;;5084963;28;20497;-66
2023/01/13 01:44:57;;;;;;;42.08;8.52;;;10.40;99.90;;;;;;5093427;28;20046;-66
2023/01/13 01:47:23;;;;;;;42.13;8.45;;;10.30;99.90;;;;;;5090903;28;20051;-66
2023/01/13 01:49:50;;;;;;;50.67;8.02;;;10.10;99.90;;;;;;5089762;28;20078;-66
2023/01/13 01:52:18;;;;;;;50.22;8.95;;;10.40;99.90;;;;;;5077630;28;20041;-66
2023/01/13 01:54:53;;;;;;;40.90;7.88;;;10.70;99.90;;;;;;5072751;28;20040;-66
2023/01/13 01:57:24;;;;;;;47.03;8.87;;;10.80;99.90;;;;;;5087262;28;20046;-66
2023/01/13 01:59:50;;;;;;;50.38;9.30;;;10.90;99.90;;;;;;5092257;28;20048;-66
2023/01/13 02:02:16;;;;;;;47.42;9.15;;;10.90;99.90;;;;;;5074346;28;20449;-66
2023/01/13 02:04:49;;;;;;;57.70;9.57;;;10.70;99.90;;;;;;5092893;28;20036;-66
2023/01/13 02:07:19;;;;;;;44.05;9.35;;;10.60;99.90;;;;;;5091288;28;20027;-66
2023/01/13 02:09:44;;;;;;;39.97;7.20;;;10.40;99.90;;;;;;5085379;28;20036;-66
2023/01/13 02:12:29;;;;;;;49.15;9.32;;;10.20;99.90;;;;;;5074019;28;20383;-66
2023/01/13 02:15:00;;;;;;;42.60;8.57;;;10.10;99.90;;;;;;5071532;28;20089;-66
2023/01/13 02:18:10;;;;;;;45.28;8.80;;;10.00;99.90;;;;;;5085093;28;20054;-66
2023/01/13 02:20:47;;;;;;;66.15;9.93;;;9.90;99.90;;;;;;5063940;28;20148;-66
2023/01/13 02:26:37;;;;;;;48.20;9.27;;;10.50;99.90;;;;;;5079872;28;20040;-66
2023/01/13 02:32:33;;;;;;;50.65;9.38;;;10.70;99.90;;;;;;5072614;28;20036;-66
2023/01/13 02:35:06;;;;;;;52.67;9.15;;;10.50;99.90;;;;;;5076747;28;20113;-66
2023/01/13 02:37:36;;;;;;;53.92;9.90;;;10.30;99.90;;;;;;5078525;28;20144;-66
2023/01/13 02:40:10;;;;;;;40.40;8.02;;;10.20;99.90;;;;;;5075202;28;20052;-66
2023/01/13 02:45:38;;;;;;;57.10;9.50;;;10.00;99.90;;;;;;5090701;28;20063;-66
2023/01/13 02:48:06;;;;;;;41.47;7.82;;;10.00;99.90;;;;;;5087979;28;20330;-66
2023/01/13 02:50:37;;;;;;;40.78;7.57;;;10.00;99.90;;;;;;5086706;28;20036;-66
2023/01/13 02:53:10;;;;;;;53.55;9.20;;;10.40;99.90;;;;;;5087710;28;20509;-66
2023/01/13 02:55:45;;;;;;;40.95;8.30;;;10.50;99.90;;;;;;5074031;28;20036;-66
2023/01/13 02:58:15;;;;;;;39.45;7.97;;;10.70;99.90;;;;;;5084594;28;20489;-66
2023/01/13 03:00:42;;;;;;;44.20;7.72;;;10.80;99.90;;;;;;5084799;28;20060;-66
2023/01/13 03:03:08;;;;;;;47.05;8.00;;;10.90;99.90;;;;;;5072240;28;20237;-66
2023/01/13 03:05:35;;;;;;;43.88;8.15;;;10.60;99.90;;;;;;5089582;28;20039;-66
2023/01/13 03:08:22;;;;;;;35.55;7.25;;;10.40;99.90;;;;;;5087090;28;20036;-66
2023/01/13 03:11:08;;;;;;;38.65;7.57;;;10.30;99.90;;;;;;5076747;28;20052;-66
2023/01/13 03:13:49;;;;;;;38.80;7.55;;;10.20;99.90;;;;;;5071745;28;20051;-66
2023/01/13 03:16:39;;;;;;;33.13;6.32;;;10.10;99.90;;;;;;5079507;28;20063;-66
2023/01/13 03:19:13;;;;;;;35.53;7.85;;;10.00;99.90;;;;;;5076594;28;20049;-66
2023/01/13 03:22:32;;;;;;;40.92;7.05;;;10.20;99.90;;;;;;5081177;28;20035;-66
2023/01/13 03:25:24;;;;;;;39.92;8.27;;;10.40;99.90;;;;;;5033478;28;20037;-66
2023/01/13 03:28:22;;;;;;;44.83;7.35;;;10.50;99.90;;;;;;5034956;28;20168;-66
2023/01/13 03:30:53;;;;;;;47.80;7.82;;;10.60;99.90;;;;;;5072482;28;20125;-66
2023/01/13 03:33:25;;;;;;;33.22;6.60;;;10.60;99.90;;;;;;5078115;28;20036;-66
2023/01/13 03:35:55;;;;;;;35.65;8.20;;;10.40;99.90;;;;;;5078090;28;20043;-66
2023/01/13 03:38:28;;;;;;;43.08;6.82;;;10.20;99.90;;;;;;5089418;28;20113;-66
2023/01/13 03:40:57;;;;;;;35.95;7.78;;;10.00;99.90;;;;;;5086914;28;20123;-66
2023/01/13 03:46:22;;;;;;;28.17;5.85;;;9.70;99.90;;;;;;5090222;28;20059;-66
2023/01/13 03:48:50;;;;;;;31.77;6.78;;;9.80;99.90;;;;;;5082354;28;20067;-66
2023/01/13 03:51:19;;;;;;;36.72;6.97;;;9.60;99.90;;;;;;5081869;28;20041;-66
2023/01/13 03:53:53;;;;;;;30.50;6.80;;;9.50;99.90;;;;;;5078745;28;20036;-66
2023/01/13 03:56:35;;;;;;;31.45;6.50;;;9.50;99.90;;;;;;5083078;28;20064;-66
2023/01/13 03:59:03;;;;;;;32.30;7.47;;;9.60;99.90;;;;;;5092836;28;20056;-66
2023/01/13 04:01:51;;;;;;;37.25;6.88;;;10.00;99.90;;;;;;5089882;28;20512;-66
2023/01/13 04:04:42;;;;;;;31.83;6.28;;;10.20;99.90;;;;;;5073803;28;20041;-66
2023/01/13 04:07:25;;;;;;;39.05;7.45;;;10.40;99.90;;;;;;5084192;28;20512;-66
2023/01/13 04:09:56;;;;;;;30.33;6.07;;;10.10;99.90;;;;;;5077656;28;20549;-66
2023/01/13 04:12:27;;;;;;;39.40;6.82;;;10.10;99.90;;;;;;5094464;28;20493;-66
2023/01/13 04:14:54;;;;;;;36.13;6.40;;;10.10;99.90;;;;;;5095161;28;20493;-66
2023/01/13 04:17:20;;;;;;;29.98;6.40;;;10.00;99.90;;;;;;5093246;28;20431;-66
2023/01/13 04:19:45;;;;;;;34.13;7.05;;;10.00;99.90;;;;;;5094353;28;20554;-66
2023/01/13 04:22:11;;;;;;;32.83;6.03;;;10.00;99.90;;;;;;5086918;28;20116;-66
2023/01/13 04:24:37;;;;;;;35.33;6.70;;;9.80;99.90;;;;;;5073254;28;20538;-66
2023/01/13 04:27:03;;;;;;;30.65;6.10;;;9.70;99.90;;;;;;5088410;28;20036;-66
2023/01/13 04:29:28;;;;;;;41.45;7.90;;;9.70;99.90;;;;;;5092930;28;20041;-67
2023/01/13 04:31:54;;;;;;;35.78;7.22;;;9.70;99.90;;;;;;5079755;28;20444;-66
2023/01/13 04:34:19;;;;;;;41.28;7.28;;;10.10;99.90;;;;;;5095129;28;20051;-66
2023/01/13 04:36:45;;;;;;;49.40;7.68;;;10.40;99.90;;;;;;5093482;28;20032;-66
2023/01/13 04:39:11;;;;;;;38.28;7.07;;;10.50;99.90;;;;;;5078349;28;20135;-66
2023/01/13 04:44:21;;;;;;;33.15;6.20;;;10.20;99.90;;;;;;5080132;28;20098;-66
2023/01/13 04:46:46;;;;;;;36.38;6.30;;;10.20;99.90;;;;;;5079160;28;20028;-66
2023/01/13 04:49:12;;;;;;;35.00;6.88;;;10.20;99.90;;;;;;5092400;28;20066;-66
2023/01/13 04:51:37;;;;;;;30.77;7.03;;;9.90;99.90;;;;;;5081103;28;20461;-66
2023/01/13 04:54:03;;;;;;;35.85;7.25;;;10.00;99.90;;;;;;5092424;28;20048;-66
2023/01/13 04:56:29;;;;;;;34.63;6.80;;;10.00;99.90;;;;;;5092110;28;20170;-66
2023/01/13 04:58:55;;;;;;;39.28;7.13;;;9.80;99.90;;;;;;5089721;28;20044;-66
2023/01/13 05:01:20;;;;;;;37.88;7.07;;;9.70;99.90;;;;;;5083862;28;20149;-66
2023/01/13 05:03:46;;;;;;;41.53;7.05;;;9.80;99.90;;;;;;5088339;28;20036;-66
2023/01/13 05:06:11;;;;;;;39.90;6.82;;;10.00;99.90;;;;;;5077190;28;20036;-66
2023/01/13 05:08:37;;;;;;;36.08;7.28;;;10.30;99.90;;;;;;5074683;28;20036;-66
2023/01/13 05:16:58;;;;;;;36.70;7.43;;;10.40;99.90;;;;;;5081297;28;20028;-66
2023/01/13 05:19:19;;;;;;;36.10;7.50;;;10.20;99.90;;;;;;5094204;28;20044;-65
2023/01/13 05:27:14;;;;;;;36.58;6.60;;;10.10;99.90;;;;;;5089556;28;20483;-66
2023/01/13 05:29:39;;;;;;;38.40;6.78;;;10.00;99.90;;;;;;5084171;28;20123;-65
2023/01/13 05:32:07;;;;;;;40.15;7.65;;;9.90;99.90;;;;;;5085115;28;20560;-66
2023/01/13 05:34:33;;;;;;;40.25;7.30;;;10.00;99.90;;;;;;5092749;28;20036;-66
2023/01/13 05:36:58;;;;;;;41.35;7.93;;;9.80;99.90;;;;;;5092212;28;20043;-66
2023/01/13 05:39:25;;;;;;;37.47;7.68;;;9.70;99.90;;;;;;5087291;28;20040;-66
2023/01/13 05:44:35;;;;;;;41.30;8.73;;;9.70;99.90;;;;;;5092487;28;20040;-66
2023/01/13 05:47:01;;;;;;;33.40;6.05;;;9.60;99.90;;;;;;5086547;28;20122;-66
2023/01/13 05:49:26;;;;;;;41.60;7.22;;;9.50;99.90;;;;;;5089981;28;20466;-66
2023/01/13 05:51:52;;;;;;;33.75;6.43;;;9.40;99.90;;;;;;5077385;28;20063;-66
2023/01/13 05:54:17;;;;;;;30.27;6.63;;;9.50;99.90;;;;;;5090710;28;20471;-66
2023/01/13 05:56:43;;;;;;;35.80;6.85;;;9.60;99.90;;;;;;5078954;28;20048;-66
2023/01/13 05:59:08;;;;;;;41.05;7.45;;;9.50;99.90;;;;;;5072446;28;20441;-66
2023/01/13 06:01:35;;;;;;;43.90;8.60;;;9.60;99.90;;;;;;5075057;28;20371;-66
2023/01/13 06:04:01;;;;;;;49.83;8.00;;;9.60;99.90;;;;;;5085560;28;20115;-66
2023/01/13 06:06:27;;;;;;;41.38;8.07;;;9.70;99.90;;;;;;5071150;28;20110;-66
2023/01/13 06:08:52;;;;;;;37.50;6.80;;;9.50;99.90;;;;;;5072262;28;20076;-66
2023/01/13 06:11:18;;;;;;;43.15;8.30;;;9.50;99.90;;;;;;5074712;28;20476;-66
2023/01/13 06:13:43;;;;;;;46.10;7.43;;;9.90;99.90;;;;;;5078893;28;20463;-66
2023/01/13 06:16:09;;;;;;;40.80;7.45;;;10.20;99.90;;;;;;5081538;28;20040;-66
2023/01/13 06:18:35;;;;;;;38.92;7.20;;;10.20;99.90;;;;;;5092627;28;20135;-66
2023/01/13 06:21:00;;;;;;;39.45;7.03;;;10.10;99.90;;;;;;5083365;28;20034;-66
2023/01/13 06:23:27;;;;;;;36.38;8.05;;;10.30;99.90;;;;;;5084607;28;20090;-66
2023/01/13 06:26:02;;;;;;;38.25;7.72;;;10.20;99.90;;;;;;5072368;28;20032;-66
2023/01/13 06:28:28;;;;;;;31.77;6.53;;;10.30;99.90;;;;;;5073589;28;20124;-66
2023/01/13 06:31:00;;;;;;;36.67;7.40;;;10.30;99.90;;;;;;5074711;28;20063;-66
2023/01/13 06:33:34;;;;;;;40.88;7.38;;;10.20;99.90;;;;;;5079269;28;20488;-66
2023/01/13 06:36:05;;;;;;;34.53;7.25;;;10.10;99.90;;;;;;5072273;28;20056;-66
2023/01/13 06:38:36;;;;;;;27.40;5.45;;;10.10;99.90;;;;;;5084565;28;20115;-66
2023/01/13 06:41:02;;;;;;;29.70;6.53;;;10.10;99.90;;;;;;5085224;28;20115;-66
2023/01/13 06:43:28;;;;;;;30.77;7.70;;;10.20;99.90;;;;;;5092526;28;20042;-66
2023/01/13 06:45:54;;;;;;;41.10;6.75;;;10.20;99.90;;;;;;5085909;28;20120;-66
2023/01/13 06:48:31;;;;;;;37.60;7.03;;;10.10;99.90;;;;;;5082546;28;20032;-66
2023/01/13 06:50:57;;;;;;;36.83;6.60;;;10.20;99.90;;;;;;5079942;28;20485;-66
2023/01/13 06:53:23;;;;;;;42.00;7.07;;;10.20;99.90;;;;;;5090427;28;20040;-66
2023/01/13 06:55:48;;;;;;;40.47;7.60;;;10.20;99.90;;;;;;5091962;28;20497;-66
2023/01/13 06:58:14;;;;;;;28.40;6.22;;;10.30;99.90;;;;;;5090511;28;20107;-66
2023/01/13 07:00:40;;;;;;;36.78;7.13;;;10.30;99.90;;;;;;5084934;28;20048;-65
2023/01/13 07:03:14;;;;;;;41.35;7.93;;;10.30;99.90;;;;;;5074679;28;21456;-66
2023/01/13 07:05:41;;;;;;;39.35;7.13;;;10.20;99.90;;;;;;5085234;28;20089;-66
2023/01/13 07:08:07;;;;;;;50.63;8.30;;;10.20;99.90;;;;;;5080842;28;20047;-66
2023/01/13 07:10:34;;;;;;;44.90;8.55;;;10.40;99.90;;;;;;5079785;28;20032;-65
2023/01/13 07:15:56;;;;;;;47.55;9.10;;;10.40;99.90;;;;;;5074934;28;20051;-65
2023/01/13 07:18:23;;;;;;;39.85;8.32;;;10.40;99.90;;;;;;5090120;28;20074;-65
2023/01/13 07:21:00;;;;;;;34.08;7.70;;;10.40;99.90;;;;;;5082697;28;20067;-65
2023/01/13 07:23:31;;;;;;;36.20;6.43;;;10.40;99.90;;;;;;5075716;28;20028;-65
2023/01/13 07:25:57;;;;;;;37.25;7.70;;;10.50;99.90;;;;;;5082635;28;20081;-65
2023/01/13 07:28:24;;;;;;;38.13;7.53;;;10.40;99.90;;;;;;5082063;28;20029;-65
2023/01/13 07:30:49;;;;;;;27.40;7.07;;;10.50;99.90;;;;;;5077639;28;20532;-65
2023/01/13 07:33:17;;;;;;;40.25;8.13;;;10.50;99.90;;;;;;5078092;28;20047;-65
2023/01/13 07:35:43;;;;;;;34.38;6.35;;;10.40;99.90;;;;;;5091649;28;20044;-65
2023/01/13 07:38:08;;;;;;;43.30;7.68;;;10.50;99.90;;;;;;5087066;28;20434;-66
2023/01/13 07:40:34;;;;;;;49.78;8.60;;;10.40;99.90;;;;;;5073951;28;20048;-65
2023/01/13 07:45:44;;;;;;;37.38;7.28;;;10.50;99.90;;;;;;5075087;28;20115;-66
2023/01/13 07:48:10;;;;;;;40.28;8.43;;;10.50;99.90;;;;;;5070377;28;20502;-66
2023/01/13 07:50:35;;;;;;;47.13;8.52;;;10.40;99.90;;;;;;5084711;28;20059;-66
2023/01/13 07:53:01;;;;;;;39.13;7.65;;;10.50;99.90;;;;;;5073306;28;20127;-66
2023/01/13 07:55:26;;;;;;;37.15;7.93;;;10.40;99.90;;;;;;5075034;28;20086;-66
2023/01/13 07:57:52;;;;;;;40.17;7.78;;;10.50;99.90;;;;;;5072914;28;20036;-66
2023/01/13 08:00:18;;;;;;;32.97;7.90;;;10.40;99.90;;;;;;5078569;28;20041;-65
2023/01/13 08:02:43;;;;;;;35.67;7.20;;;10.40;99.90;;;;;;5090918;28;20055;-65
2023/01/13 08:05:09;;;;;;;50.78;8.02;;;10.30;99.90;;;;;;5075865;28;20032;-65
2023/01/13 08:07:34;;;;;;;40.72;7.32;;;10.30;99.90;;;;;;5074246;28;20030;-65
2023/01/13 08:10:01;;;;;;;41.83;8.48;;;10.20;99.90;;;;;;5082271;28;20057;-65
2023/01/13 08:15:11;;;;;;;39.28;7.70;;;10.20;99.90;;;;;;5086334;28;20068;-65
2023/01/13 08:17:37;;;;;;;34.58;7.05;;;10.20;99.90;;;;;;5090095;28;20461;-65
2023/01/13 08:20:04;;;;;;;37.72;7.05;;;10.10;99.90;;;;;;5085110;28;20044;-66
2023/01/13 08:22:31;;;;;;;41.20;7.95;;;10.10;99.90;;;;;;5081851;28;20054;-65
2023/01/13 08:25:00;;;;;;;51.22;7.72;;;10.10;99.90;;;;;;5092726;28;20386;-65
2023/01/13 08:27:26;;;;;;;44.60;7.82;;;10.10;99.90;;;;;;5085409;28;20036;-65
2023/01/13 08:29:51;;;;;;;47.00;8.00;;;9.90;99.90;;;;;;5088830;28;20059;-65
2023/01/13 08:32:17;;;;;;;39.33;7.03;;;9.90;99.90;;;;;;5087608;28;20036;-64
2023/01/13 08:34:43;;;;;;;46.17;8.65;;;9.90;99.90;;;;;;5085723;28;20055;-65
2023/01/13 08:37:08;;;;;;;45.80;8.00;;;9.90;99.90;;;;;;5079060;28;20109;-65
2023/01/13 08:39:34;;;;;;;42.42;7.90;;;9.90;99.90;;;;;;5088606;28;20398;-64
2023/01/13 08:42:01;;;;;;;46.88;8.40;;;9.90;99.90;;;;;;5087499;28;20032;-64
2023/01/13 08:44:29;;;;;;;44.63;8.07;;;9.90;99.90;;;;;;5082243;28;20037;-64
2023/01/13 08:46:56;;;;;;;45.65;8.93;;;10.00;99.90;;;;;;5088438;28;20051;-64
2023/01/13 08:49:23;;;;;;;42.30;8.18;;;9.90;99.90;;;;;;5088481;28;20044;-64
2023/01/13 08:51:49;;;;;;;43.30;7.05;;;9.90;99.90;;;;;;5084921;28;20075;-64
2023/01/13 08:54:16;;;;;;;36.55;6.85;;;10.00;99.90;;;;;;5082485;28;20049;-64
2023/01/13 08:56:43;;;;;;;46.03;8.43;;;10.00;99.90;;;;;;5079562;28;20058;-65
2023/01/13 08:59:17;;;;;;;34.55;7.95;;;10.00;99.90;;;;;;5081176;28;20528;-64
2023/01/13 09:01:43;;;;;;;50.70;8.73;;;9.90;99.90;;;;;;5084552;28;20394;-65
2023/01/13 09:04:18;;;;;;;61.88;8.75;;;9.90;99.90;;;;;;5077007;28;20037;-65
2023/01/13 09:06:44;;;;;;;53.05;7.95;;;9.90;99.90;;;;;;5084940;28;20690;-68
2023/01/13 09:09:10;;;;;;;36.30;6.85;;;10.00;99.90;;;;;;5083971;28;20397;-65
2023/01/13 09:14:28;;;;;;;38.35;7.72;;;10.10;99.90;;;;;;5077942;28;20046;-65
2023/01/13 09:16:53;;;;;;;47.20;7.15;;;9.90;99.90;;;;;;5080711;28;20040;-65
2023/01/13 09:19:19;;;;;;;39.40;7.45;;;9.80;99.90;;;;;;5085178;28;20134;-64
2023/01/13 09:21:44;;;;;;;51.13;8.40;;;9.60;99.90;;;;;;5091251;28;20071;-65
2023/01/13 09:24:10;;;;;;;40.35;7.75;;;9.50;99.90;;;;;;5083929;28;20040;-65
2023/01/13 09:26:36;;;;;;;41.75;8.15;;;9.80;99.90;;;;;;5085326;28;20409;-65
2023/01/13 09:29:02;;;;;;;50.40;7.57;;;9.60;99.90;;;;;;5082285;28;20055;-64
2023/01/13 09:31:28;;;;;;;38.55;7.85;;;9.50;99.90;;;;;;5082410;28;20036;-65
2023/01/13 09:36:38;;;;;;;38.80;6.43;;;9.70;99.90;;;;;;5082673;28;20039;-65
2023/01/13 09:39:04;;;;;;;41.60;7.68;;;9.50;99.90;;;;;;5085693;28;20028;-66
2023/01/13 09:44:27;;;;;;;38.58;7.10;;;9.60;99.90;;;;;;5082573;28;20043;-68
2023/01/13 09:46:59;;;;;;;37.63;6.97;;;9.70;99.90;;;;;;5080577;28;20489;-66
2023/01/13 09:49:36;;;;;;;32.25;6.35;;;9.70;99.90;;;;;;5081483;28;20032;-65
2023/01/13 09:52:18;;;;;;;38.28;7.15;;;9.70;99.90;;;;;;5079286;28;20043;-66
2023/01/13 09:54:49;;;;;;;30.10;6.72;;;9.80;99.90;;;;;;5087321;28;20036;-66
2023/01/13 09:57:18;;;;;;;31.75;6.22;;;9.80;99.90;;;;;;5085755;28;20039;-66
2023/01/13 09:59:43;;;;;;;34.33;6.65;;;9.80;99.90;;;;;;5083812;28;20044;-66
2023/01/13 10:02:28;;;;;;;35.97;6.88;;;9.80;99.90;;;;;;5086249;28;20172;-66
2023/01/13 10:05:13;;;;;;;36.20;6.70;;;9.80;99.90;;;;;;5081789;28;20500;-66
2023/01/13 10:07:51;;;;;;;32.75;6.07;;;9.80;99.90;;;;;;5089436;28;20061;-66
2023/01/13 10:10:47;;;;;;;40.72;7.38;;;9.80;99.90;;;;;;5078250;28;20039;-66
2023/01/13 10:13:23;;;;;;;38.63;7.00;;;9.70;99.90;;;;;;5085089;28;20056;-66
2023/01/13 10:16:05;;;;;;;35.80;6.82;;;9.90;99.90;;;;;;5087986;28;20469;-66
2023/01/13 10:18:58;;;;;;;33.00;6.15;;;9.90;99.90;;;;;;5084503;28;20048;-66
2023/01/13 10:21:42;;;;;;;38.47;7.63;;;10.00;99.90;;;;;;5076848;28;20041;-66
2023/01/13 10:24:18;;;;;;;33.60;6.75;;;10.00;99.90;;;;;;5095884;28;20068;-65
2023/01/13 10:26:53;;;;;;;39.53;6.55;;;10.20;99.90;;;;;;5083554;28;20039;-65
2023/01/13 10:29:24;;;;;;;31.55;6.75;;;10.20;99.90;;;;;;5077009;28;20036;-66
2023/01/13 10:31:52;;;;;;;38.10;7.03;;;10.10;99.90;;;;;;5080537;28;20115;-65
2023/01/13 10:34:19;;;;;;;37.22;6.38;;;10.20;99.90;;;;;;5079352;28;20459;-66
2023/01/13 10:36:58;;;;;;;38.88;8.15;;;10.20;99.90;;;;;;5082765;28;20410;-65
2023/01/13 10:39:24;;;;;;;28.23;6.38;;;10.30;99.90;;;;;;5078837;28;20075;-65
2023/01/13 10:42:00;;;;;;;40.05;6.72;;;10.20;99.90;;;;;;5087237;28;20067;-65
2023/01/13 10:44:26;;;;;;;38.25;6.90;;;10.30;99.90;;;;;;5083120;28;20448;-65
2023/01/13 10:46:54;;;;;;;33.22;6.40;;;10.40;99.90;;;;;;5083792;28;20032;-65
2023/01/13 10:49:28;;;;;;;30.40;6.28;;;10.40;99.90;;;;;;5081047;28;20104;-65
2023/01/13 10:51:53;;;;;;;29.05;6.03;;;10.50;99.90;;;;;;5091339;28;20032;-65
2023/01/13 10:54:21;;;;;;;39.42;6.85;;;10.40;99.90;;;;;;5086784;28;20359;-65
2023/01/13 10:56:48;;;;;;;29.88;6.30;;;10.50;99.90;;;;;;5082774;28;20041;-66
2023/01/13 10:59:15;;;;;;;34.55;7.22;;;10.50;99.90;;;;;;5073900;28;20046;-69
2023/01/13 11:01:53;;;;;;;31.80;6.20;;;10.60;99.90;;;;;;5078552;28;20105;-66
2023/01/13 11:04:37;;;;;;;31.58;6.35;;;10.60;99.90;;;;;;5081782;28;20040;-65
2023/01/13 11:07:15;;;;;;;35.35;7.20;;;10.70;99.90;;;;;;5080486;28;20084;-66
2023/01/13 11:09:41;;;;;;;35.13;6.05;;;10.60;99.90;;;;;;5075257;28;20047;-66
2023/01/13 11:12:31;;;;;;;41.63;6.93;;;10.60;99.90;;;;;;5082586;28;20472;-65
2023/01/13 11:15:00;;;;;;;30.33;6.00;;;10.70;99.90;;;;;;5088015;28;20036;-65
2023/01/13 11:17:46;;;;;;;31.15;5.88;;;10.60;99.90;;;;;;5083318;28;20079;-65
2023/01/13 11:20:32;;;;;;;33.20;5.78;;;10.50;99.90;;;;;;5062218;28;20138;-65
2023/01/13 11:23:01;;;;;;;26.52;4.80;;;10.50;99.90;;;;;;5078642;28;20040;-65
2023/01/13 11:25:42;;;;;;;26.92;6.10;;;10.40;99.90;;;;;;5086474;28;20062;-65
2023/01/13 11:28:33;;;;;;;28.40;5.88;;;10.40;99.90;;;;;;5088434;28;20512;-65
2023/01/13 11:31:14;;;;;;;36.53;6.57;;;10.40;99.90;;;;;;5083664;28;20055;-65
2023/01/13 11:33:51;;;;;;;26.35;5.72;;;10.50;99.90;;;;;;5087618;28;20081;-65
2023/01/13 11:36:39;;;;;;;30.92;5.93;;;10.50;99.90;;;;;;5081740;28;20512;-65
2023/01/13 11:39:13;;;;;;;32.80;5.80;;;10.40;99.90;;;;;;5080236;28;20402;-66
2023/01/13 11:41:43;;;;;;;28.60;5.55;;;10.50;99.90;;;;;;5081616;28;20036;-66
2023/01/13 12:07:20;;;;;;;27.13;6.10;;;11.00;99.90;;;;;;5108258;27;20392;-60
2023/01/13 12:10:01;;;;;;;27.17;5.72;;;10.90;99.90;;;;;;5085748;28;20032;-61
2023/01/13 12:12:59;;;;;;;31.65;5.28;;;10.70;99.90;;;;;;5084111;28;20040;-62
2023/01/13 12:15:56;;;;;;;31.77;5.88;;;10.70;99.90;;;;;;5054015;28;20061;-61
2023/01/13 12:18:44;;;;;;;32.47;5.45;;;10.60;99.90;;;;;;5069523;28;20044;-62
2023/01/13 12:21:22;;;;;;;22.65;4.82;;;10.40;99.90;;;;;;5072300;28;20493;-62
2023/01/13 12:24:04;;;;;;;30.10;6.22;;;10.40;99.90;;;;;;5070396;28;20171;-62
2023/01/13 12:26:34;;;;;;;29.27;5.18;;;10.40;99.90;;;;;;5084061;28;20040;-63
2023/01/13 12:29:09;;;;;;;25.23;5.75;;;10.50;99.90;;;;;;5072402;28;20533;-60
2023/01/13 12:31:38;;;;;;;26.02;5.78;;;10.60;99.90;;;;;;5066948;28;20547;-60
2023/01/13 12:34:19;;;;;;;24.25;5.50;;;10.60;99.90;;;;;;5083782;28;20032;-60
2023/01/13 12:36:53;;;;;;;31.60;5.65;;;10.50;99.90;;;;;;5075449;28;20044;-60
2023/01/13 12:39:25;;;;;;;34.47;6.07;;;10.60;99.90;;;;;;5082291;28;20029;-60
2023/01/13 12:45:11;;;;;;;30.45;5.63;;;10.60;99.90;;;;;;5068567;28;20123;-62
2023/01/13 12:47:38;;;;;;;32.22;5.88;;;10.60;99.90;;;;;;5066830;28;20094;-61
2023/01/13 12:50:21;;;;;;;26.27;5.32;;;10.60;99.90;;;;;;5083096;28;20040;-62
2023/01/13 12:53:19;;;;;;;26.55;5.70;;;10.50;99.90;;;;;;5069999;28;20052;-60
2023/01/13 12:55:50;;;;;;;26.15;5.05;;;10.50;99.90;;;;;;5072536;28;20052;-59
2023/01/13 12:58:16;;;;;;;27.67;5.03;;;10.50;99.90;;;;;;5072658;28;20490;-63
2023/01/13 13:00:44;;;;;;;28.48;5.57;;;10.50;99.90;;;;;;5079554;28;20109;-63
2023/01/13 13:03:15;;;;;;;33.50;5.82;;;10.60;99.90;;;;;;5080705;28;20047;-61
2023/01/13 13:05:46;;;;;;;29.50;5.38;;;10.60;99.90;;;;;;5069543;28;20071;-61
2023/01/13 13:08:25;;;;;;;29.00;5.60;;;10.70;99.90;;;;;;5018098;28;20128;-60
2023/01/13 13:11:00;;;;;;;31.15;5.50;;;10.70;99.90;;;;;;5039583;28;20041;-60
2023/01/13 13:13:47;;;;;;;32.00;6.03;;;10.80;99.90;;;;;;5035953;28;20084;-60
2023/01/13 13:16:25;;;;;;;30.75;5.53;;;10.90;99.90;;;;;;5033806;28;20308;-60
2023/01/13 13:18:51;;;;;;;30.48;5.22;;;10.80;99.90;;;;;;5035291;28;20098;-59
2023/01/13 13:21:16;;;;;;;27.63;5.95;;;10.70;99.90;;;;;;5052551;28;20116;-60
2023/01/13 13:24:01;;;;;;;31.58;6.13;;;10.90;99.90;;;;;;5036481;28;20121;-59
2023/01/13 13:26:36;;;;;;;29.63;5.45;;;10.90;99.90;;;;;;5035110;28;20042;-60
2023/01/13 13:29:20;;;;;;;27.70;5.43;;;10.80;99.90;;;;;;5051387;28;20116;-61
2023/01/13 13:32:13;;;;;;;31.08;5.95;;;10.90;99.90;;;;;;5044532;28;20500;-61
2023/01/13 13:34:58;;;;;;;32.78;5.90;;;10.90;99.90;;;;;;5036179;28;20037;-59
2023/01/13 13:46:45;;;;;;;23.20;5.75;;;10.80;99.90;;;;;;5017168;28;20395;-61
2023/01/13 13:48:54;;;;;;;30.05;5.65;;;10.80;99.90;;;;;;5048986;28;20087;-61
2023/01/13 13:51:27;;;;;;;28.48;6.72;;;10.80;99.90;;;;;;5053783;28;20044;-60
2023/01/13 13:53:54;;;;;;;30.60;6.03;;;10.80;99.90;;;;;;5050992;28;20048;-60
2023/01/13 13:56:26;;;;;;;25.67;5.10;;;10.90;99.90;;;;;;5034329;28;20046;-60
2023/01/13 13:58:53;;;;;;;29.55;5.90;;;10.90;99.90;;;;;;5048248;28;20116;-60
2023/01/13 14:01:27;;;;;;;31.20;6.35;;;11.00;99.90;;;;;;5034912;28;20072;-60
2023/01/13 14:04:26;;;;;;;27.30;5.68;;;11.00;99.90;;;;;;5034710;28;20041;-60
2023/01/13 14:06:57;;;;;;;26.10;6.43;;;11.10;99.90;;;;;;5034335;28;20045;-60
2023/01/13 14:09:27;;;;;;;23.33;5.00;;;10.90;99.90;;;;;;5034945;28;20041;-61
2023/01/13 14:11:54;;;;;;;26.77;5.32;;;10.90;99.90;;;;;;5034213;28;20084;-60
2023/01/13 14:14:20;;;;;;;28.38;5.45;;;10.80;99.90;;;;;;5037289;28;20479;-60
2023/01/13 14:16:45;;;;;;;32.70;5.55;;;10.80;99.90;;;;;;5053973;28;20036;-59
2023/01/13 14:19:34;;;;;;;23.60;4.97;;;10.90;99.90;;;;;;5050730;28;20086;-60
2023/01/13 14:22:02;;;;;;;23.92;4.88;;;10.90;99.90;;;;;;5049058;28;20557;-59